CFG2780 LKPR-EDDH
Flight info
| Callsign | CFG2780 |
|---|---|
| Flight time | 1h 0m |
| Altitude | 36000 |
| Route | VENOX DCT DEKOV Y621 ESLOR M748 RARUP RARUP6A |
| Aircraft | A320/M-SDE3FGHIRWY/LB1 |
Departure
| Time | 2026-05-05 18:14 |
|---|---|
| Airport | Václav Havel Airport Prague (LKPR) |
Arrival
| Time | 2026-05-05 19:15 |
|---|---|
| Airport | Hamburg Helmut Schmidt Airport (EDDH) |
| Time | Latitude | Longitude | Altitude | Speed | Heading |
|---|---|---|---|---|---|
| 2026-05-05 17:38 | 50.10433 | 14.26575 | 1191 ft | 0 kts | 33° |
| 2026-05-05 17:52 | 50.10432 | 14.26575 | 1191 ft | 0 kts | 33° |
| 2026-05-05 17:59 | 50.10432 | 14.26574 | 1191 ft | 0 kts | 33° |
| 2026-05-05 17:59 | 50.10435 | 14.26578 | 1191 ft | 0 kts | 32° |
| 2026-05-05 18:03 | 50.10426 | 14.26569 | 1191 ft | 2 kts | 32° |
| 2026-05-05 18:03 | 50.10412 | 14.26556 | 1191 ft | 2 kts | 353° |
| 2026-05-05 18:04 | 50.10402 | 14.26560 | 1192 ft | 0 kts | 310° |
| 2026-05-05 18:04 | 50.10395 | 14.26571 | 1192 ft | 2 kts | 323° |
| 2026-05-05 18:04 | 50.10388 | 14.26578 | 1192 ft | 2 kts | 319° |
| 2026-05-05 18:04 | 50.10387 | 14.26578 | 1192 ft | 0 kts | 310° |
| 2026-05-05 18:06 | 50.10387 | 14.26579 | 1192 ft | 0 kts | 310° |
| 2026-05-05 18:07 | 50.10387 | 14.26578 | 1192 ft | 1 kts | 310° |
| 2026-05-05 18:07 | 50.10395 | 14.26560 | 1192 ft | 3 kts | 305° |
| 2026-05-05 18:07 | 50.10405 | 14.26538 | 1192 ft | 2 kts | 305° |
| 2026-05-05 18:08 | 50.10420 | 14.26506 | 1191 ft | 5 kts | 304° |
| 2026-05-05 18:08 | 50.10444 | 14.26450 | 1191 ft | 7 kts | 304° |
| 2026-05-05 18:08 | 50.10475 | 14.26382 | 1189 ft | 8 kts | 305° |
| 2026-05-05 18:08 | 50.10511 | 14.26304 | 1188 ft | 9 kts | 306° |
| 2026-05-05 18:09 | 50.10532 | 14.26220 | 1188 ft | 7 kts | 252° |
| 2026-05-05 18:09 | 50.10508 | 14.26188 | 1189 ft | 3 kts | 216° |
| 2026-05-05 18:09 | 50.10487 | 14.26164 | 1190 ft | 5 kts | 216° |
| 2026-05-05 18:09 | 50.10458 | 14.26130 | 1191 ft | 7 kts | 221° |
| 2026-05-05 18:10 | 50.10467 | 14.26047 | 1191 ft | 11 kts | 305° |
| 2026-05-05 18:10 | 50.10528 | 14.25920 | 1186 ft | 17 kts | 303° |
| 2026-05-05 18:10 | 50.10592 | 14.25769 | 1183 ft | 13 kts | 301° |
| 2026-05-05 18:10 | 50.10633 | 14.25653 | 1176 ft | 10 kts | 298° |
| 2026-05-05 18:11 | 50.10634 | 14.25564 | 1177 ft | 3 kts | 235° |
| 2026-05-05 18:11 | 50.10631 | 14.25559 | 1173 ft | 0 kts | 231° |
| 2026-05-05 18:11 | 50.10630 | 14.25557 | 1173 ft | 2 kts | 232° |
| 2026-05-05 18:12 | 50.10602 | 14.25477 | 1176 ft | 10 kts | 250° |
| 2026-05-05 18:12 | 50.10587 | 14.25374 | 1174 ft | 10 kts | 259° |
| 2026-05-05 18:12 | 50.10573 | 14.25264 | 1171 ft | 11 kts | 259° |
| 2026-05-05 18:12 | 50.10553 | 14.25156 | 1170 ft | 9 kts | 239° |
| 2026-05-05 18:13 | 50.10508 | 14.25153 | 1170 ft | 6 kts | 142° |
| 2026-05-05 18:13 | 50.10493 | 14.25180 | 1173 ft | 1 kts | 128° |
| 2026-05-05 18:13 | 50.10482 | 14.25202 | 1174 ft | 4 kts | 128° |
| 2026-05-05 18:13 | 50.10414 | 14.25338 | 1175 ft | 44 kts | 127° |
| 2026-05-05 18:14 | 50.10090 | 14.26009 | 1187 ft | 109 kts | 127° |
| 2026-05-05 18:14 | 50.09529 | 14.27167 | 1228 ft | 156 kts | 127° |
| 2026-05-05 18:14 | 50.08869 | 14.28517 | 1838 ft | 155 kts | 122° |
| 2026-05-05 18:14 | 50.08190 | 14.29861 | 2410 ft | 161 kts | 120° |
| 2026-05-05 18:15 | 50.07502 | 14.31264 | 2984 ft | 168 kts | 124° |
| 2026-05-05 18:15 | 50.06768 | 14.32798 | 3272 ft | 189 kts | 124° |
| 2026-05-05 18:15 | 50.05916 | 14.34566 | 3553 ft | 215 kts | 124° |
| 2026-05-05 18:15 | 50.04975 | 14.36527 | 3977 ft | 237 kts | 126° |
| 2026-05-05 18:16 | 50.03948 | 14.38673 | 4519 ft | 256 kts | 126° |
| 2026-05-05 18:16 | 50.02855 | 14.40934 | 4913 ft | 265 kts | 127° |
| 2026-05-05 18:16 | 50.01736 | 14.43241 | 4991 ft | 268 kts | 127° |
| 2026-05-05 18:16 | 50.00720 | 14.45619 | 5004 ft | 263 kts | 114° |
| 2026-05-05 18:17 | 50.00362 | 14.48408 | 5333 ft | 268 kts | 88° |
| 2026-05-05 18:17 | 50.00779 | 14.51226 | 6298 ft | 274 kts | 68° |
| 2026-05-05 18:17 | 50.01926 | 14.53646 | 7024 ft | 286 kts | 41° |
| 2026-05-05 18:17 | 50.03572 | 14.55454 | 7840 ft | 292 kts | 36° |
| 2026-05-05 18:18 | 50.05245 | 14.57298 | 8674 ft | 297 kts | 37° |
| 2026-05-05 18:18 | 50.06918 | 14.59222 | 9526 ft | 301 kts | 37° |
| 2026-05-05 18:18 | 50.08627 | 14.61185 | 10119 ft | 314 kts | 35° |
| 2026-05-05 18:18 | 50.10628 | 14.62817 | 10410 ft | 337 kts | 18° |
| 2026-05-05 18:19 | 50.12980 | 14.63273 | 10952 ft | 346 kts | 353° |
| 2026-05-05 18:19 | 50.15282 | 14.62171 | 11549 ft | 351 kts | 328° |
| 2026-05-05 18:19 | 50.17273 | 14.59953 | 12284 ft | 353 kts | 321° |
| 2026-05-05 18:19 | 50.19224 | 14.57604 | 13091 ft | 356 kts | 320° |
| 2026-05-05 18:20 | 50.21185 | 14.55205 | 13819 ft | 359 kts | 320° |
| 2026-05-05 18:20 | 50.23157 | 14.52787 | 14476 ft | 363 kts | 320° |
| 2026-05-05 18:20 | 50.25151 | 14.50345 | 15150 ft | 366 kts | 320° |
| 2026-05-05 18:20 | 50.27164 | 14.47891 | 15802 ft | 369 kts | 320° |
| 2026-05-05 18:21 | 50.29206 | 14.45415 | 16466 ft | 373 kts | 320° |
| 2026-05-05 18:21 | 50.31264 | 14.42927 | 17121 ft | 376 kts | 320° |
| 2026-05-05 18:21 | 50.33346 | 14.40411 | 17753 ft | 380 kts | 320° |
| 2026-05-05 18:21 | 50.35448 | 14.37867 | 18324 ft | 384 kts | 320° |
| 2026-05-05 18:22 | 50.37572 | 14.35295 | 18866 ft | 388 kts | 320° |
| 2026-05-05 18:22 | 50.39711 | 14.32698 | 19423 ft | 391 kts | 319° |
| 2026-05-05 18:22 | 50.41867 | 14.30077 | 19982 ft | 394 kts | 319° |
| 2026-05-05 18:22 | 50.44041 | 14.27429 | 20541 ft | 397 kts | 319° |
| 2026-05-05 18:23 | 50.46226 | 14.24760 | 21111 ft | 400 kts | 319° |
| 2026-05-05 18:23 | 50.48430 | 14.22062 | 21693 ft | 403 kts | 319° |
| 2026-05-05 18:23 | 50.50649 | 14.19354 | 22255 ft | 406 kts | 320° |
| 2026-05-05 18:23 | 50.53071 | 14.17017 | 22793 ft | 413 kts | 331° |
| 2026-05-05 18:24 | 50.55787 | 14.15433 | 23311 ft | 421 kts | 343° |
| 2026-05-05 18:24 | 50.58699 | 14.14700 | 23772 ft | 428 kts | 355° |
| 2026-05-05 18:24 | 50.61691 | 14.14873 | 24196 ft | 433 kts | 6° |
| 2026-05-05 18:24 | 50.64676 | 14.15590 | 24619 ft | 435 kts | 7° |
| 2026-05-05 18:25 | 50.67679 | 14.16316 | 25047 ft | 438 kts | 7° |
| 2026-05-05 18:25 | 50.68697 | 14.16561 | 25186 ft | 439 kts | 7° |
| 2026-05-05 18:25 | 50.73736 | 14.17770 | 25890 ft | 442 kts | 7° |
| 2026-05-05 18:25 | 50.76773 | 14.18499 | 26304 ft | 444 kts | 7° |
| 2026-05-05 18:26 | 50.79837 | 14.19239 | 26709 ft | 446 kts | 7° |
| 2026-05-05 18:26 | 50.81869 | 14.19732 | 26967 ft | 447 kts | 7° |
| 2026-05-05 18:26 | 50.84955 | 14.20482 | 27333 ft | 450 kts | 7° |
| 2026-05-05 18:26 | 50.88071 | 14.21165 | 27683 ft | 452 kts | 2° |
| 2026-05-05 18:27 | 50.91212 | 14.21230 | 28029 ft | 452 kts | 353° |
| 2026-05-05 18:27 | 50.95347 | 14.20420 | 28533 ft | 453 kts | 349° |
| 2026-05-05 18:27 | 50.97456 | 14.19955 | 28814 ft | 453 kts | 349° |
| 2026-05-05 18:27 | 51.01597 | 14.18999 | 29295 ft | 454 kts | 346° |
| 2026-05-05 18:28 | 51.06591 | 14.16392 | 29849 ft | 450 kts | 330° |
| 2026-05-05 18:28 | 51.09295 | 14.13915 | 30119 ft | 448 kts | 321° |
| 2026-05-05 18:28 | 51.11731 | 14.10846 | 30386 ft | 446 kts | 315° |
| 2026-05-05 18:29 | 51.14070 | 14.07592 | 30648 ft | 447 kts | 315° |
| 2026-05-05 18:29 | 51.16415 | 14.04331 | 30921 ft | 449 kts | 315° |
| 2026-05-05 18:29 | 51.18773 | 14.01054 | 31176 ft | 450 kts | 315° |
| 2026-05-05 18:29 | 51.21137 | 13.97769 | 31472 ft | 450 kts | 315° |
| 2026-05-05 18:30 | 51.23488 | 13.94504 | 31874 ft | 447 kts | 315° |
| 2026-05-05 18:30 | 51.25830 | 13.91244 | 32246 ft | 446 kts | 315° |
| 2026-05-05 18:30 | 51.28170 | 13.87977 | 32603 ft | 444 kts | 315° |
| 2026-05-05 18:30 | 51.30480 | 13.84746 | 32955 ft | 443 kts | 314° |
| 2026-05-05 18:31 | 51.32798 | 13.81496 | 33291 ft | 442 kts | 314° |
| 2026-05-05 18:31 | 51.35105 | 13.78259 | 33628 ft | 441 kts | 314° |
| 2026-05-05 18:31 | 51.37412 | 13.75022 | 33949 ft | 440 kts | 314° |
| 2026-05-05 18:31 | 51.39712 | 13.71789 | 34235 ft | 440 kts | 314° |
| 2026-05-05 18:32 | 51.42005 | 13.68563 | 34508 ft | 439 kts | 314° |
| 2026-05-05 18:32 | 51.44300 | 13.65328 | 34772 ft | 439 kts | 314° |
| 2026-05-05 18:32 | 51.46586 | 13.62095 | 35025 ft | 438 kts | 314° |
| 2026-05-05 18:32 | 51.48869 | 13.58857 | 35281 ft | 438 kts | 314° |
| 2026-05-05 18:33 | 51.51148 | 13.55621 | 35578 ft | 437 kts | 313° |
| 2026-05-05 18:33 | 51.53420 | 13.52391 | 35764 ft | 436 kts | 313° |
| 2026-05-05 18:33 | 51.57943 | 13.45974 | 35808 ft | 431 kts | 314° |
| 2026-05-05 18:34 | 51.62433 | 13.39589 | 35811 ft | 431 kts | 313° |
| 2026-05-05 18:34 | 51.66911 | 13.33183 | 35809 ft | 430 kts | 313° |
| 2026-05-05 18:35 | 51.71379 | 13.26765 | 35810 ft | 431 kts | 313° |
| 2026-05-05 18:35 | 51.75848 | 13.20332 | 35811 ft | 430 kts | 313° |
| 2026-05-05 18:36 | 51.80315 | 13.13892 | 35829 ft | 431 kts | 313° |
| 2026-05-05 18:36 | 51.84783 | 13.07439 | 35834 ft | 430 kts | 313° |
| 2026-05-05 18:37 | 51.89237 | 13.00978 | 35834 ft | 430 kts | 313° |
| 2026-05-05 18:37 | 51.93692 | 12.94502 | 35832 ft | 430 kts | 313° |
| 2026-05-05 18:38 | 51.98143 | 12.88016 | 35840 ft | 430 kts | 313° |
| 2026-05-05 18:38 | 52.02593 | 12.81513 | 35849 ft | 431 kts | 313° |
| 2026-05-05 18:39 | 52.07109 | 12.74899 | 35837 ft | 431 kts | 312° |
| 2026-05-05 18:39 | 52.11492 | 12.68436 | 35851 ft | 431 kts | 312° |
| 2026-05-05 18:40 | 52.15923 | 12.61896 | 35788 ft | 430 kts | 312° |
| 2026-05-05 18:40 | 52.18149 | 12.58612 | 35290 ft | 430 kts | 312° |
| 2026-05-05 18:40 | 52.20361 | 12.55346 | 34805 ft | 429 kts | 312° |
| 2026-05-05 18:41 | 52.22568 | 12.52077 | 34305 ft | 428 kts | 312° |
| 2026-05-05 18:41 | 52.24768 | 12.48817 | 33820 ft | 425 kts | 311° |
| 2026-05-05 18:41 | 52.26924 | 12.45548 | 33269 ft | 421 kts | 310° |
| 2026-05-05 18:41 | 52.28978 | 12.42176 | 32739 ft | 418 kts | 308° |
| 2026-05-05 18:42 | 52.30956 | 12.38720 | 32212 ft | 416 kts | 307° |
| 2026-05-05 18:42 | 52.32899 | 12.35241 | 31689 ft | 414 kts | 308° |
| 2026-05-05 18:42 | 52.34976 | 12.31965 | 31183 ft | 415 kts | 312° |
| 2026-05-05 18:42 | 52.37108 | 12.28804 | 30690 ft | 413 kts | 312° |
| 2026-05-05 18:43 | 52.39250 | 12.25694 | 30196 ft | 410 kts | 313° |
| 2026-05-05 18:43 | 52.41390 | 12.22630 | 29673 ft | 407 kts | 313° |
| 2026-05-05 18:43 | 52.43514 | 12.19597 | 29115 ft | 404 kts | 313° |
| 2026-05-05 18:43 | 52.45623 | 12.16578 | 28561 ft | 401 kts | 313° |
| 2026-05-05 18:44 | 52.47714 | 12.13570 | 28016 ft | 398 kts | 313° |
| 2026-05-05 18:44 | 52.49784 | 12.10579 | 27483 ft | 395 kts | 313° |
| 2026-05-05 18:44 | 52.51838 | 12.07601 | 26957 ft | 393 kts | 313° |
| 2026-05-05 18:44 | 52.53882 | 12.04631 | 26463 ft | 391 kts | 313° |
| 2026-05-05 18:45 | 52.55911 | 12.01679 | 25997 ft | 388 kts | 313° |
| 2026-05-05 18:45 | 52.57917 | 11.98762 | 25838 ft | 383 kts | 313° |
| 2026-05-05 18:45 | 52.59906 | 11.95856 | 25871 ft | 383 kts | 313° |
| 2026-05-05 18:45 | 52.61900 | 11.92944 | 25868 ft | 383 kts | 313° |
| 2026-05-05 18:46 | 52.63904 | 11.90034 | 25873 ft | 384 kts | 314° |
| 2026-05-05 18:46 | 52.65970 | 11.87230 | 25888 ft | 385 kts | 316° |
| 2026-05-05 18:46 | 52.68087 | 11.84534 | 25868 ft | 385 kts | 318° |
| 2026-05-05 18:46 | 52.70231 | 11.81894 | 25879 ft | 385 kts | 318° |
| 2026-05-05 18:47 | 52.72378 | 11.79269 | 25862 ft | 384 kts | 318° |
| 2026-05-05 18:47 | 52.74507 | 11.76644 | 25437 ft | 381 kts | 318° |
| 2026-05-05 18:47 | 52.76609 | 11.74014 | 24979 ft | 378 kts | 317° |
| 2026-05-05 18:47 | 52.78688 | 11.71386 | 24527 ft | 375 kts | 317° |
| 2026-05-05 18:48 | 52.80751 | 11.68758 | 24086 ft | 373 kts | 317° |
| 2026-05-05 18:48 | 52.82798 | 11.66140 | 23895 ft | 372 kts | 318° |
| 2026-05-05 18:48 | 52.84844 | 11.63516 | 23881 ft | 373 kts | 318° |
| 2026-05-05 18:48 | 52.86894 | 11.60885 | 23884 ft | 374 kts | 318° |
| 2026-05-05 18:49 | 52.88950 | 11.58248 | 23889 ft | 374 kts | 318° |
| 2026-05-05 18:49 | 52.91007 | 11.55612 | 23887 ft | 374 kts | 318° |
| 2026-05-05 18:49 | 52.93064 | 11.52977 | 23887 ft | 374 kts | 318° |
| 2026-05-05 18:49 | 52.95112 | 11.50353 | 23572 ft | 371 kts | 318° |
| 2026-05-05 18:50 | 52.97145 | 11.47747 | 23070 ft | 368 kts | 318° |
| 2026-05-05 18:50 | 52.99166 | 11.45155 | 22573 ft | 366 kts | 318° |
| 2026-05-05 18:50 | 53.01172 | 11.42574 | 22100 ft | 363 kts | 319° |
| 2026-05-05 18:50 | 53.03162 | 11.40010 | 21633 ft | 361 kts | 319° |
| 2026-05-05 18:51 | 53.05138 | 11.37455 | 21196 ft | 358 kts | 319° |
| 2026-05-05 18:51 | 53.07099 | 11.34923 | 20764 ft | 356 kts | 319° |
| 2026-05-05 18:51 | 53.09046 | 11.32418 | 20489 ft | 349 kts | 319° |
| 2026-05-05 18:51 | 53.10942 | 11.29983 | 20241 ft | 342 kts | 319° |
| 2026-05-05 18:52 | 53.12818 | 11.27594 | 19894 ft | 339 kts | 321° |
| 2026-05-05 18:52 | 53.14728 | 11.25311 | 19509 ft | 337 kts | 323° |
| 2026-05-05 18:52 | 53.16658 | 11.23100 | 19129 ft | 335 kts | 323° |
| 2026-05-05 18:52 | 53.18584 | 11.20929 | 18759 ft | 334 kts | 324° |
| 2026-05-05 18:53 | 53.20499 | 11.18771 | 18392 ft | 332 kts | 324° |
| 2026-05-05 18:53 | 53.22381 | 11.16563 | 18018 ft | 329 kts | 317° |
| 2026-05-05 18:53 | 53.23853 | 11.13712 | 17639 ft | 322 kts | 298° |
| 2026-05-05 18:53 | 53.24654 | 11.10283 | 17249 ft | 317 kts | 281° |
| 2026-05-05 18:54 | 53.25143 | 11.06700 | 16845 ft | 315 kts | 281° |
| 2026-05-05 18:54 | 53.25616 | 11.03136 | 16473 ft | 314 kts | 281° |
| 2026-05-05 18:54 | 53.26081 | 10.99587 | 16104 ft | 312 kts | 281° |
| 2026-05-05 18:54 | 53.26543 | 10.96058 | 15762 ft | 310 kts | 281° |
| 2026-05-05 18:55 | 53.27002 | 10.92551 | 15415 ft | 308 kts | 281° |
| 2026-05-05 18:55 | 53.27459 | 10.89063 | 15066 ft | 307 kts | 281° |
| 2026-05-05 18:55 | 53.27915 | 10.85589 | 14733 ft | 305 kts | 281° |
| 2026-05-05 18:55 | 53.28363 | 10.82175 | 14413 ft | 304 kts | 281° |
| 2026-05-05 18:56 | 53.28818 | 10.78698 | 14102 ft | 301 kts | 281° |
| 2026-05-05 18:56 | 53.29205 | 10.75273 | 13781 ft | 299 kts | 275° |
| 2026-05-05 18:56 | 53.29374 | 10.71866 | 13431 ft | 297 kts | 273° |
| 2026-05-05 18:56 | 53.29509 | 10.68435 | 13071 ft | 295 kts | 272° |
| 2026-05-05 18:57 | 53.29639 | 10.65020 | 12710 ft | 294 kts | 272° |
| 2026-05-05 18:57 | 53.29767 | 10.61628 | 12375 ft | 291 kts | 272° |
| 2026-05-05 18:57 | 53.29894 | 10.58298 | 12232 ft | 282 kts | 272° |
| 2026-05-05 18:57 | 53.30015 | 10.55083 | 12102 ft | 273 kts | 272° |
| 2026-05-05 18:58 | 53.30135 | 10.51973 | 11972 ft | 264 kts | 272° |
| 2026-05-05 18:58 | 53.30251 | 10.48954 | 11841 ft | 256 kts | 272° |
| 2026-05-05 18:58 | 53.30366 | 10.46018 | 11604 ft | 252 kts | 272° |
| 2026-05-05 18:58 | 53.30480 | 10.43101 | 11312 ft | 251 kts | 272° |
| 2026-05-05 18:59 | 53.30593 | 10.40204 | 11018 ft | 249 kts | 272° |
| 2026-05-05 18:59 | 53.30706 | 10.37323 | 10722 ft | 247 kts | 272° |
| 2026-05-05 18:59 | 53.30821 | 10.34460 | 10429 ft | 246 kts | 272° |
| 2026-05-05 18:59 | 53.30935 | 10.31614 | 10112 ft | 245 kts | 272° |
| 2026-05-05 19:00 | 53.31046 | 10.28771 | 9804 ft | 244 kts | 272° |
| 2026-05-05 19:00 | 53.31155 | 10.25947 | 9479 ft | 242 kts | 272° |
| 2026-05-05 19:00 | 53.31261 | 10.23141 | 9129 ft | 241 kts | 272° |
| 2026-05-05 19:00 | 53.31361 | 10.20339 | 8732 ft | 242 kts | 272° |
| 2026-05-05 19:01 | 53.31458 | 10.17539 | 8398 ft | 241 kts | 272° |
| 2026-05-05 19:01 | 53.31555 | 10.14760 | 8046 ft | 240 kts | 272° |
| 2026-05-05 19:01 | 53.31650 | 10.11984 | 7703 ft | 238 kts | 272° |
| 2026-05-05 19:01 | 53.31741 | 10.09217 | 7319 ft | 239 kts | 272° |
| 2026-05-05 19:02 | 53.31824 | 10.06444 | 7023 ft | 236 kts | 272° |
| 2026-05-05 19:02 | 53.31904 | 10.03694 | 7024 ft | 239 kts | 272° |
| 2026-05-05 19:02 | 53.31983 | 10.00909 | 7019 ft | 241 kts | 272° |
| 2026-05-05 19:02 | 53.32062 | 9.98110 | 7020 ft | 241 kts | 272° |
| 2026-05-05 19:03 | 53.32185 | 9.95320 | 7019 ft | 241 kts | 282° |
| 2026-05-05 19:03 | 53.32938 | 9.92854 | 7015 ft | 241 kts | 314° |
| 2026-05-05 19:03 | 53.34328 | 9.91377 | 6769 ft | 239 kts | 344° |
| 2026-05-05 19:03 | 53.35970 | 9.91173 | 6435 ft | 238 kts | 4° |
| 2026-05-05 19:04 | 53.37623 | 9.91410 | 6091 ft | 238 kts | 6° |
| 2026-05-05 19:04 | 53.39270 | 9.91658 | 5766 ft | 237 kts | 5° |
| 2026-05-05 19:04 | 53.40892 | 9.91475 | 5449 ft | 235 kts | 341° |
| 2026-05-05 19:04 | 53.42221 | 9.89945 | 5123 ft | 235 kts | 309° |
| 2026-05-05 19:05 | 53.42861 | 9.87459 | 4771 ft | 237 kts | 277° |
| 2026-05-05 19:05 | 53.42612 | 9.84762 | 4426 ft | 237 kts | 244° |
| 2026-05-05 19:05 | 53.41746 | 9.82410 | 4072 ft | 237 kts | 234° |
| 2026-05-05 19:05 | 53.40777 | 9.80173 | 4014 ft | 238 kts | 233° |
| 2026-05-05 19:06 | 53.39793 | 9.77944 | 4018 ft | 238 kts | 233° |
| 2026-05-05 19:06 | 53.38804 | 9.75706 | 4021 ft | 239 kts | 233° |
| 2026-05-05 19:06 | 53.37827 | 9.73494 | 4024 ft | 239 kts | 233° |
| 2026-05-05 19:06 | 53.36820 | 9.71219 | 4025 ft | 240 kts | 233° |
| 2026-05-05 19:07 | 53.35851 | 9.68948 | 4020 ft | 240 kts | 240° |
| 2026-05-05 19:07 | 53.35483 | 9.67257 | 4009 ft | 229 kts | 263° |
| 2026-05-05 19:07 | 53.35944 | 9.64007 | 4016 ft | 215 kts | 311° |
| 2026-05-05 19:07 | 53.37122 | 9.62598 | 4022 ft | 209 kts | 346° |
| 2026-05-05 19:08 | 53.38532 | 9.62623 | 4016 ft | 204 kts | 22° |
| 2026-05-05 19:08 | 53.39361 | 9.63344 | 4029 ft | 204 kts | 34° |
| 2026-05-05 19:08 | 53.40528 | 9.64694 | 4020 ft | 204 kts | 36° |
| 2026-05-05 19:08 | 53.41723 | 9.65987 | 4017 ft | 204 kts | 29° |
| 2026-05-05 19:09 | 53.43004 | 9.67019 | 4022 ft | 204 kts | 26° |
| 2026-05-05 19:09 | 53.44301 | 9.67983 | 4011 ft | 205 kts | 25° |
| 2026-05-05 19:09 | 53.46030 | 9.69262 | 4011 ft | 205 kts | 25° |
| 2026-05-05 19:09 | 53.46913 | 9.69917 | 4010 ft | 205 kts | 25° |
| 2026-05-05 19:10 | 53.48215 | 9.70884 | 4010 ft | 204 kts | 25° |
| 2026-05-05 19:10 | 53.49504 | 9.71895 | 3894 ft | 207 kts | 34° |
| 2026-05-05 19:10 | 53.50499 | 9.73590 | 3611 ft | 204 kts | 51° |
| 2026-05-05 19:10 | 53.51408 | 9.75418 | 3334 ft | 203 kts | 50° |
| 2026-05-05 19:11 | 53.52301 | 9.77207 | 3062 ft | 196 kts | 50° |
| 2026-05-05 19:11 | 53.53154 | 9.78916 | 2836 ft | 186 kts | 51° |
| 2026-05-05 19:11 | 53.53973 | 9.80560 | 2554 ft | 180 kts | 50° |
| 2026-05-05 19:11 | 53.54765 | 9.82150 | 2304 ft | 174 kts | 50° |
| 2026-05-05 19:12 | 53.55531 | 9.83689 | 2069 ft | 170 kts | 50° |
| 2026-05-05 19:12 | 53.56287 | 9.85209 | 1833 ft | 166 kts | 51° |
| 2026-05-05 19:12 | 53.56986 | 9.86613 | 1642 ft | 145 kts | 51° |
| 2026-05-05 19:12 | 53.57606 | 9.87861 | 1440 ft | 135 kts | 51° |
| 2026-05-05 19:13 | 53.58197 | 9.89053 | 1220 ft | 131 kts | 50° |
| 2026-05-05 19:13 | 53.58788 | 9.90211 | 1062 ft | 131 kts | 51° |
| 2026-05-05 19:13 | 53.59358 | 9.91382 | 868 ft | 129 kts | 50° |
| 2026-05-05 19:13 | 53.59939 | 9.92547 | 696 ft | 130 kts | 51° |
| 2026-05-05 19:14 | 53.60516 | 9.93711 | 519 ft | 131 kts | 51° |
| 2026-05-05 19:14 | 53.61091 | 9.94887 | 357 ft | 131 kts | 51° |
| 2026-05-05 19:14 | 53.61673 | 9.96053 | 179 ft | 130 kts | 51° |
| 2026-05-05 19:14 | 53.62244 | 9.97217 | 49 ft | 124 kts | 51° |
| 2026-05-05 19:15 | 53.62704 | 9.98155 | 45 ft | 79 kts | 50° |
| 2026-05-05 19:15 | 53.62949 | 9.98643 | 43 ft | 30 kts | 50° |
| 2026-05-05 19:15 | 53.63061 | 9.98884 | 44 ft | 22 kts | 61° |
| 2026-05-05 19:15 | 53.63093 | 9.99068 | 45 ft | 13 kts | 83° |
| 2026-05-05 19:16 | 53.63093 | 9.99129 | 45 ft | 1 kts | 96° |
| 2026-05-05 19:16 | 53.63093 | 9.99132 | 45 ft | 0 kts | 96° |
| 2026-05-05 19:16 | 53.63092 | 9.99138 | 45 ft | 1 kts | 96° |
| 2026-05-05 19:16 | 53.63092 | 9.99148 | 44 ft | 1 kts | 96° |
| 2026-05-05 19:17 | 53.63091 | 9.99164 | 44 ft | 3 kts | 95° |
| 2026-05-05 19:17 | 53.63089 | 9.99199 | 44 ft | 2 kts | 95° |
| 2026-05-05 19:17 | 53.63088 | 9.99222 | 44 ft | 4 kts | 95° |
| 2026-05-05 19:17 | 53.63085 | 9.99278 | 44 ft | 4 kts | 94° |
| 2026-05-05 19:18 | 53.63083 | 9.99323 | 42 ft | 5 kts | 95° |
| 2026-05-05 19:18 | 53.63086 | 9.99360 | 45 ft | 2 kts | 67° |
| 2026-05-05 19:18 | 53.63091 | 9.99374 | 45 ft | 2 kts | 61° |
| 2026-05-05 19:18 | 53.63115 | 9.99441 | 46 ft | 9 kts | 56° |
| 2026-05-05 19:19 | 53.63155 | 9.99533 | 45 ft | 11 kts | 51° |
| 2026-05-05 19:19 | 53.63205 | 9.99634 | 45 ft | 12 kts | 50° |
| 2026-05-05 19:19 | 53.63268 | 9.99745 | 45 ft | 14 kts | 44° |
| 2026-05-05 19:19 | 53.63328 | 9.99862 | 45 ft | 11 kts | 50° |
| 2026-05-05 19:20 | 53.63381 | 9.99969 | 46 ft | 13 kts | 49° |
| 2026-05-05 19:20 | 53.63432 | 10.00079 | 46 ft | 9 kts | 58° |
| 2026-05-05 19:20 | 53.63444 | 10.00186 | 43 ft | 8 kts | 75° |
| 2026-05-05 19:20 | 53.63449 | 10.00248 | 46 ft | 4 kts | 87° |
| 2026-05-05 19:21 | 53.63450 | 10.00279 | 46 ft | 2 kts | 89° |
| 2026-05-05 19:21 | 53.63450 | 10.00296 | 46 ft | 1 kts | 87° |
| 2026-05-05 19:21 | 53.63451 | 10.00305 | 46 ft | 1 kts | 87° |
| 2026-05-05 19:21 | 53.63451 | 10.00327 | 46 ft | 1 kts | 86° |
| 2026-05-05 19:22 | 53.63451 | 10.00329 | 46 ft | 0 kts | 86° |
| 2026-05-05 19:22 | 53.63452 | 10.00329 | 46 ft | 0 kts | 86° |
| 2026-05-05 19:22 | 53.63451 | 10.00329 | 46 ft | 0 kts | 86° |
| 2026-05-05 19:23 | 53.63451 | 10.00328 | 46 ft | 0 kts | 86° |